createdAt,value
2018-07-19T00:00:22.692Z,0.00
2018-07-19T00:01:22.756Z,0.00
2018-07-19T00:02:22.832Z,0.00
2018-07-19T00:03:22.884Z,0.00
2018-07-19T00:04:22.944Z,0.00
2018-07-19T00:05:23.020Z,0.00
2018-07-19T00:06:23.084Z,0.00
2018-07-19T00:07:23.144Z,0.00
2018-07-19T00:08:23.208Z,0.00
2018-07-19T00:09:23.277Z,0.00
2018-07-19T00:10:23.513Z,0.00
2018-07-19T00:11:23.404Z,0.00
2018-07-19T00:12:23.472Z,0.00
2018-07-19T00:13:23.536Z,0.00
2018-07-19T00:14:23.604Z,0.00
2018-07-19T00:15:23.680Z,0.00
2018-07-19T00:16:23.740Z,0.00
2018-07-19T00:17:23.801Z,0.00
2018-07-19T00:18:23.868Z,0.00
2018-07-19T00:19:23.932Z,0.00
2018-07-19T00:20:24.005Z,0.00
2018-07-19T00:21:24.076Z,0.00
2018-07-19T00:22:24.134Z,0.00
2018-07-19T00:23:24.200Z,0.00
2018-07-19T00:24:24.261Z,0.00
2018-07-19T00:25:24.409Z,0.00
2018-07-19T00:26:24.397Z,0.00
2018-07-19T00:27:24.461Z,0.00
2018-07-19T00:28:24.524Z,0.00
2018-07-19T00:29:24.601Z,0.00
2018-07-19T00:30:24.665Z,0.00
2018-07-19T00:31:24.729Z,0.00
2018-07-19T00:32:24.785Z,0.00
2018-07-19T00:33:24.857Z,0.00
2018-07-19T00:34:24.917Z,0.00
2018-07-19T00:35:24.991Z,0.00
2018-07-19T00:36:25.058Z,0.00
2018-07-19T00:37:25.117Z,0.00
2018-07-19T00:38:25.192Z,0.00
2018-07-19T00:39:25.246Z,0.00
2018-07-19T00:40:25.322Z,0.00
2018-07-19T00:41:25.411Z,0.00
2018-07-19T00:42:25.445Z,0.00
2018-07-19T00:43:25.509Z,0.00
2018-07-19T00:44:25.573Z,0.00
2018-07-19T00:45:25.642Z,0.00
2018-07-19T00:46:25.717Z,0.00
2018-07-19T00:47:25.778Z,0.00
2018-07-19T00:48:25.837Z,0.00
2018-07-19T00:49:25.902Z,0.00
2018-07-19T00:50:25.969Z,0.00
2018-07-19T00:51:26.042Z,0.00
2018-07-19T00:52:26.106Z,0.00
2018-07-19T00:53:26.166Z,0.00
2018-07-19T00:54:26.233Z,0.00
2018-07-19T00:55:26.298Z,0.00
2018-07-19T00:56:26.370Z,0.00
2018-07-19T00:57:26.434Z,0.00
2018-07-19T00:58:26.494Z,0.00
2018-07-19T00:59:26.558Z,0.00
2018-07-19T01:00:26.626Z,0.00
2018-07-19T01:01:26.702Z,0.00
2018-07-19T01:02:26.770Z,0.00
2018-07-19T01:03:26.822Z,0.00
2018-07-19T01:04:26.892Z,0.00
2018-07-19T01:05:26.954Z,0.00
2018-07-19T01:06:27.026Z,0.00
2018-07-19T01:07:27.091Z,0.00
2018-07-19T01:08:27.150Z,0.00
2018-07-19T01:09:27.230Z,0.00
2018-07-19T01:10:27.283Z,0.00
2018-07-19T01:11:27.362Z,0.00
2018-07-19T01:12:27.414Z,0.00
2018-07-19T01:13:27.478Z,0.00
2018-07-19T01:14:27.547Z,0.00
2018-07-19T01:15:27.610Z,0.00
2018-07-19T01:16:27.683Z,0.00
2018-07-19T01:17:27.751Z,0.00
2018-07-19T01:18:27.811Z,0.00
2018-07-19T01:19:27.890Z,0.00
2018-07-19T01:20:27.941Z,0.00
2018-07-19T01:21:28.011Z,0.00
2018-07-19T01:22:28.082Z,0.00
2018-07-19T01:23:28.134Z,0.00
2018-07-19T01:24:28.202Z,0.00
2018-07-19T01:25:28.267Z,0.00
2018-07-19T01:26:28.487Z,0.00
2018-07-19T01:27:28.399Z,0.00
2018-07-19T01:28:28.467Z,0.00
2018-07-19T01:29:28.531Z,0.00
2018-07-19T01:30:28.599Z,0.00
2018-07-19T01:31:28.667Z,0.00
2018-07-19T01:32:28.736Z,0.00
2018-07-19T01:33:28.795Z,0.00
2018-07-19T01:34:28.855Z,0.00
2018-07-19T01:35:28.923Z,0.00
2018-07-19T01:36:28.994Z,0.00
2018-07-19T01:37:29.063Z,0.00
2018-07-19T01:38:29.119Z,0.00
2018-07-19T01:39:29.187Z,0.00
2018-07-19T01:40:29.251Z,0.00
2018-07-19T01:41:29.331Z,0.00
2018-07-19T01:42:29.383Z,0.00
2018-07-19T01:43:29.447Z,0.00
2018-07-19T01:44:29.511Z,0.00
2018-07-19T01:45:29.579Z,0.00
2018-07-19T01:46:29.651Z,0.00
2018-07-19T01:47:29.716Z,0.00
2018-07-19T01:48:29.778Z,0.00
2018-07-19T01:49:29.840Z,0.00
2018-07-19T01:50:29.915Z,0.00
2018-07-19T01:51:29.980Z,0.00
2018-07-19T01:52:30.044Z,0.00
2018-07-19T01:53:30.106Z,0.00
2018-07-19T01:54:30.168Z,0.00
2018-07-19T01:55:30.232Z,0.00
2018-07-19T01:56:30.300Z,0.00
2018-07-19T01:57:30.380Z,0.00
2018-07-19T01:58:30.432Z,0.00
2018-07-19T01:59:30.495Z,0.00
2018-07-19T02:00:30.560Z,0.00
2018-07-19T02:01:30.623Z,0.00
2018-07-19T02:02:30.700Z,0.00
2018-07-19T02:03:30.764Z,0.00
2018-07-19T02:04:30.820Z,0.00
2018-07-19T02:05:30.888Z,0.00
2018-07-19T02:06:30.952Z,0.00
2018-07-19T02:07:31.056Z,0.00
2018-07-19T02:08:31.093Z,0.00
2018-07-19T02:09:31.148Z,0.00
2018-07-19T02:10:31.220Z,0.00
2018-07-19T02:11:31.284Z,0.00
2018-07-19T02:12:31.361Z,0.00
2018-07-19T02:13:31.412Z,0.00
2018-07-19T02:14:31.476Z,0.00
2018-07-19T02:15:31.540Z,0.00
2018-07-19T02:16:31.608Z,0.00
2018-07-19T02:17:31.692Z,0.00
2018-07-19T02:18:31.745Z,0.00
2018-07-19T02:19:31.805Z,0.00
2018-07-19T02:20:31.868Z,0.00
2018-07-19T02:21:31.938Z,0.00
2018-07-19T02:22:32.005Z,0.00
2018-07-19T02:23:32.077Z,0.00
2018-07-19T02:24:32.129Z,0.00
2018-07-19T02:25:32.193Z,0.00
2018-07-19T02:26:32.265Z,0.00
2018-07-19T02:27:32.341Z,0.00
2018-07-19T02:28:32.389Z,0.00
2018-07-19T02:29:32.469Z,0.00
2018-07-19T02:30:32.525Z,0.00
2018-07-19T02:31:32.585Z,0.00
2018-07-19T02:32:32.665Z,0.00
2018-07-19T02:33:32.721Z,0.00
2018-07-19T02:34:32.781Z,0.00
2018-07-19T02:35:32.845Z,0.00
2018-07-19T02:36:32.914Z,0.00
2018-07-19T02:37:32.985Z,0.00
2018-07-19T02:38:33.050Z,0.00
2018-07-19T02:39:33.121Z,0.00
2018-07-19T02:40:33.178Z,0.00
2018-07-19T02:41:33.237Z,0.00
2018-07-19T02:42:33.305Z,0.00
2018-07-19T02:43:33.389Z,0.00
2018-07-19T02:44:33.434Z,0.00
2018-07-19T02:45:33.497Z,0.00
2018-07-19T02:46:33.565Z,0.00
2018-07-19T02:47:33.629Z,0.00
2018-07-19T02:48:33.702Z,0.00
2018-07-19T02:49:33.765Z,0.00
2018-07-19T02:50:33.826Z,0.00
2018-07-19T02:51:33.890Z,0.00
2018-07-19T02:52:33.954Z,0.00
2018-07-19T02:53:34.026Z,0.00
2018-07-19T02:54:34.094Z,0.00
2018-07-19T02:55:34.150Z,0.00
2018-07-19T02:56:34.214Z,0.00
2018-07-19T02:57:34.282Z,0.00
2018-07-19T02:58:34.362Z,0.00
2018-07-19T02:59:34.410Z,0.00
2018-07-19T03:00:34.482Z,0.00
2018-07-19T03:01:34.542Z,0.00
2018-07-19T03:02:34.606Z,0.00
2018-07-19T03:03:34.682Z,0.00
2018-07-19T03:04:34.742Z,4.00
2018-07-19T03:05:34.811Z,4.00
2018-07-19T03:06:34.869Z,0.00
2018-07-19T03:07:34.936Z,4.00
2018-07-19T03:08:35.002Z,4.00
2018-07-19T03:09:35.072Z,4.00
2018-07-19T03:10:35.129Z,4.00
2018-07-19T03:11:35.194Z,4.00
2018-07-19T03:12:35.259Z,8.00
2018-07-19T03:13:35.478Z,8.00
2018-07-19T03:14:35.386Z,8.00
2018-07-19T03:15:35.450Z,8.00
2018-07-19T03:16:35.519Z,8.00
2018-07-19T03:17:35.583Z,8.00
2018-07-19T03:18:35.654Z,12.00
2018-07-19T03:19:35.718Z,16.00
2018-07-19T03:20:35.805Z,16.00
2018-07-19T03:21:35.843Z,20.00
2018-07-19T03:22:35.906Z,20.00
2018-07-19T03:23:35.982Z,20.00
2018-07-19T03:24:36.047Z,24.00
2018-07-19T03:25:36.102Z,28.00
2018-07-19T03:26:36.163Z,28.00
2018-07-19T03:27:36.231Z,32.00
2018-07-19T03:28:36.451Z,36.00
2018-07-19T03:29:36.363Z,40.00
2018-07-19T03:30:36.431Z,44.00
2018-07-19T03:31:36.495Z,48.00
2018-07-19T03:32:36.564Z,52.00
2018-07-19T03:33:36.631Z,56.00
2018-07-19T03:34:36.695Z,64.00
2018-07-19T03:35:36.751Z,72.00
2018-07-19T03:36:36.819Z,76.00
2018-07-19T03:37:36.884Z,80.00
2018-07-19T03:38:36.959Z,88.00
2018-07-19T03:39:37.019Z,96.00
2018-07-19T03:40:37.092Z,104.00
2018-07-19T03:41:37.148Z,112.00
2018-07-19T03:42:37.207Z,120.00
2018-07-19T03:43:37.272Z,128.00
2018-07-19T03:44:37.351Z,136.00
2018-07-19T03:45:37.405Z,144.00
2018-07-19T03:46:37.467Z,152.00
2018-07-19T03:47:37.531Z,164.00
2018-07-19T03:48:37.600Z,176.00
2018-07-19T03:49:37.672Z,184.00
2018-07-19T03:50:37.797Z,192.00
2018-07-19T03:51:37.792Z,204.00
2018-07-19T03:52:37.856Z,220.00
2018-07-19T03:53:37.924Z,232.00
2018-07-19T03:54:37.996Z,244.00
2018-07-19T03:55:38.060Z,260.00
2018-07-19T03:56:38.119Z,272.00
2018-07-19T03:57:38.184Z,292.00
2018-07-19T03:58:38.249Z,308.00
2018-07-19T03:59:38.312Z,324.00
2018-07-19T04:00:38.488Z,344.00
2018-07-19T04:01:38.444Z,364.00
2018-07-19T04:02:38.508Z,384.00
2018-07-19T04:03:38.575Z,404.00
2018-07-19T04:04:38.640Z,424.00
2018-07-19T04:05:38.711Z,440.00
2018-07-19T04:06:38.772Z,460.00
2018-07-19T04:07:38.832Z,480.00
2018-07-19T04:08:38.897Z,500.00
2018-07-19T04:09:38.960Z,520.00
2018-07-19T04:10:39.032Z,540.00
2018-07-19T04:11:39.101Z,568.00
2018-07-19T04:12:39.157Z,596.00
2018-07-19T04:13:39.221Z,620.00
2018-07-19T04:14:39.288Z,648.00
2018-07-19T04:15:39.357Z,676.00
2018-07-19T04:16:39.424Z,704.00
2018-07-19T04:17:39.481Z,740.00
2018-07-19T04:18:39.548Z,768.00
2018-07-19T04:19:39.613Z,796.00
2018-07-19T04:20:39.685Z,824.00
2018-07-19T04:21:39.749Z,852.00
2018-07-19T04:22:39.810Z,880.00
2018-07-19T04:23:39.881Z,908.00
2018-07-19T04:24:39.937Z,940.00
2018-07-19T04:25:40.010Z,972.00
2018-07-19T04:26:40.078Z,1012.00
2018-07-19T04:27:40.133Z,1048.00
2018-07-19T04:28:40.197Z,1092.00
2018-07-19T04:29:40.261Z,1132.00
2018-07-19T04:30:40.333Z,1176.00
2018-07-19T04:31:40.397Z,1212.00
2018-07-19T04:32:40.457Z,1252.00
2018-07-19T04:33:40.521Z,1292.00
2018-07-19T04:34:40.589Z,1328.00
2018-07-19T04:35:40.657Z,1368.00
2018-07-19T04:36:40.725Z,1412.00
2018-07-19T04:37:40.781Z,1452.00
2018-07-19T04:38:40.850Z,1496.00
2018-07-19T04:39:40.913Z,1536.00
2018-07-19T04:40:40.993Z,1576.00
2018-07-19T04:41:41.049Z,1624.00
2018-07-19T04:42:41.109Z,1668.00
2018-07-19T04:43:41.173Z,1708.00
2018-07-19T04:44:41.245Z,1744.00
2018-07-19T04:45:41.301Z,1780.00
2018-07-19T04:46:41.597Z,1816.00
2018-07-19T04:47:41.433Z,1852.00
2018-07-19T04:48:41.497Z,1888.00
2018-07-19T04:49:41.565Z,1924.00
2018-07-19T04:50:41.630Z,1968.00
2018-07-19T04:51:41.701Z,2004.00
2018-07-19T04:52:41.766Z,2044.00
2018-07-19T04:53:41.825Z,2088.00
2018-07-19T04:54:41.920Z,2132.00
2018-07-19T04:55:41.954Z,2172.00
2018-07-19T04:56:42.026Z,2216.00
2018-07-19T04:57:42.089Z,2252.00
2018-07-19T04:58:42.150Z,2292.00
2018-07-19T04:59:42.214Z,2328.00
2018-07-19T05:00:42.282Z,2360.00
2018-07-19T05:01:42.369Z,2400.00
2018-07-19T05:02:42.414Z,2444.00
2018-07-19T05:03:42.483Z,2488.00
2018-07-19T05:04:42.542Z,2536.00
2018-07-19T05:05:42.606Z,2576.00
2018-07-19T05:06:42.678Z,2616.00
2018-07-19T05:07:42.746Z,2652.00
2018-07-19T05:08:42.802Z,2684.00
2018-07-19T05:09:42.874Z,2712.00
2018-07-19T05:10:42.934Z,2744.00
2018-07-19T05:11:43.010Z,2780.00
2018-07-19T05:12:43.071Z,2808.00
2018-07-19T05:13:43.130Z,2844.00
2018-07-19T05:14:43.195Z,2884.00
2018-07-19T05:15:43.262Z,2932.00
2018-07-19T05:16:43.326Z,2984.00
2018-07-19T05:17:43.406Z,3032.00
2018-07-19T05:18:43.458Z,3084.00
2018-07-19T05:19:43.526Z,3120.00
2018-07-19T05:20:43.586Z,3144.00
2018-07-19T05:21:43.654Z,3164.00
2018-07-19T05:22:43.726Z,3188.00
2018-07-19T05:23:43.795Z,3212.00
2018-07-19T05:24:43.851Z,3240.00
2018-07-19T05:25:43.918Z,3268.00
2018-07-19T05:26:43.983Z,3308.00
2018-07-19T05:27:44.055Z,3348.00
2018-07-19T05:28:44.119Z,3400.00
2018-07-19T05:29:44.180Z,3456.00
2018-07-19T05:30:44.247Z,3520.00
2018-07-19T05:31:44.315Z,3580.00
2018-07-19T05:32:44.403Z,3636.00
2018-07-19T05:33:44.444Z,3684.00
2018-07-19T05:34:44.508Z,3716.00
2018-07-19T05:35:44.577Z,3760.00
2018-07-19T05:36:44.640Z,3812.00
2018-07-19T05:37:44.711Z,3868.00
2018-07-19T05:38:44.782Z,3916.00
2018-07-19T05:39:44.836Z,3972.00
2018-07-19T05:40:44.900Z,4032.00
2018-07-19T05:41:44.968Z,4084.00
2018-07-19T05:42:45.040Z,4144.00
2018-07-19T05:43:45.104Z,4196.00
2018-07-19T05:44:45.164Z,4248.00
2018-07-19T05:45:45.232Z,4304.00
2018-07-19T05:46:45.300Z,4368.00
2018-07-19T05:47:45.372Z,4436.00
2018-07-19T05:48:45.432Z,4512.00
2018-07-19T05:49:45.492Z,4600.00
2018-07-19T05:50:45.560Z,4700.00
2018-07-19T05:51:45.624Z,4808.00
2018-07-19T05:52:45.696Z,4924.00
2018-07-19T05:53:45.764Z,5052.00
2018-07-19T05:54:45.828Z,5176.00
2018-07-19T05:55:45.888Z,5340.00
2018-07-19T05:56:45.958Z,5520.00
2018-07-19T05:57:46.032Z,5720.00
2018-07-19T05:58:46.093Z,5916.00
2018-07-19T05:59:46.157Z,6112.00
2018-07-19T06:00:46.220Z,6296.00
2018-07-19T06:01:46.285Z,6416.00
2018-07-19T06:02:46.368Z,6500.00
2018-07-19T06:03:46.417Z,6564.00
2018-07-19T06:04:46.485Z,6624.00
2018-07-19T06:05:46.549Z,6728.00
2018-07-19T06:06:46.618Z,6912.00
2018-07-19T06:07:46.686Z,7156.00
2018-07-19T06:08:46.757Z,7380.00
2018-07-19T06:09:46.817Z,7456.00
2018-07-19T06:10:46.881Z,7200.00
2018-07-19T06:11:46.949Z,6696.00
2018-07-19T06:12:47.023Z,6276.00
2018-07-19T06:13:47.091Z,6088.00
2018-07-19T06:14:47.149Z,6048.00
2018-07-19T06:15:47.217Z,6056.00
2018-07-19T06:16:47.281Z,6080.00
2018-07-19T06:17:47.354Z,6044.00
2018-07-19T06:18:47.422Z,5828.00
2018-07-19T06:19:47.481Z,5456.00
2018-07-19T06:20:47.550Z,5072.00
2018-07-19T06:21:47.617Z,4740.00
2018-07-19T06:22:47.694Z,4500.00
2018-07-19T06:23:47.841Z,4356.00
2018-07-19T06:24:47.817Z,4260.00
2018-07-19T06:25:47.906Z,4212.00
2018-07-19T06:26:47.954Z,4228.00
2018-07-19T06:27:48.033Z,4300.00
2018-07-19T06:28:48.094Z,4412.00
2018-07-19T06:29:48.155Z,4548.00
2018-07-19T06:30:48.221Z,5216.00
2018-07-19T06:31:48.285Z,5000.00
2018-07-19T06:32:48.361Z,5280.00
2018-07-19T06:33:48.434Z,5468.00
2018-07-19T06:34:48.489Z,5704.00
2018-07-19T06:35:48.558Z,6728.00
2018-07-19T06:36:48.626Z,7284.00
2018-07-19T06:37:48.698Z,18688.00
2018-07-19T06:38:48.774Z,7516.00
2018-07-19T06:39:48.826Z,12172.00
2018-07-19T06:40:48.897Z,6336.00
2018-07-19T06:41:48.966Z,6220.00
2018-07-19T06:42:49.038Z,5964.00
2018-07-19T06:43:49.106Z,6008.00
2018-07-19T06:44:49.166Z,6124.00
2018-07-19T06:45:49.234Z,6192.00
2018-07-19T06:46:49.302Z,6132.00
2018-07-19T06:47:49.386Z,8008.00
2018-07-19T06:48:49.439Z,6540.00
2018-07-19T06:49:49.507Z,6484.00
2018-07-19T06:50:49.578Z,6660.00
2018-07-19T06:51:49.643Z,6724.00
2018-07-19T06:52:49.726Z,6888.00
2018-07-19T06:53:49.786Z,14592.00
2018-07-19T06:54:49.850Z,9636.00
2018-07-19T06:55:49.915Z,7328.00
2018-07-19T06:56:49.982Z,9956.00
2018-07-19T06:57:50.060Z,8624.00
2018-07-19T06:58:50.126Z,9732.00
2018-07-19T06:59:50.191Z,6984.00
2018-07-19T07:00:50.262Z,6884.00
2018-07-19T07:01:50.326Z,6876.00
2018-07-19T07:02:50.402Z,6856.00
2018-07-19T07:03:50.471Z,6888.00
2018-07-19T07:04:50.537Z,6976.00
2018-07-19T07:05:50.603Z,7188.00
2018-07-19T07:06:50.671Z,7588.00
2018-07-19T07:07:50.743Z,8112.00
2018-07-19T07:08:50.848Z,8480.00
2018-07-19T07:09:50.875Z,11288.00
2018-07-19T07:10:50.943Z,27520.00
2018-07-19T07:11:51.011Z,27840.00
2018-07-19T07:12:51.386Z,22720.00
2018-07-19T07:13:51.151Z,10288.00
2018-07-19T07:14:51.232Z,11592.00
2018-07-19T07:15:51.291Z,9100.00
2018-07-19T07:16:51.362Z,10292.00
2018-07-19T07:17:51.439Z,12472.00
2018-07-19T07:18:51.507Z,24096.00
2018-07-19T07:19:51.571Z,30688.00
2018-07-19T07:20:51.643Z,33408.00
2018-07-19T07:21:51.715Z,27424.00
2018-07-19T07:22:51.795Z,12608.00
2018-07-19T07:23:51.862Z,10424.00
2018-07-19T07:24:51.927Z,10072.00
2018-07-19T07:25:51.999Z,11564.00
2018-07-19T07:26:52.067Z,16544.00
2018-07-19T07:27:52.163Z,19168.00
2018-07-19T07:28:52.214Z,17856.00
2018-07-19T07:29:52.283Z,11384.00
2018-07-19T07:30:52.355Z,10408.00
2018-07-19T07:31:52.427Z,11788.00
2018-07-19T07:32:52.503Z,15392.00
2018-07-19T07:33:52.579Z,11488.00
2018-07-19T07:34:52.640Z,11068.00
2018-07-19T07:35:52.711Z,10632.00
2018-07-19T07:36:52.784Z,11912.00
2018-07-19T07:37:52.863Z,12984.00
2018-07-19T07:38:52.961Z,11264.00
2018-07-19T07:39:53.000Z,13192.00
2018-07-19T07:40:53.067Z,12684.00
2018-07-19T07:41:53.139Z,15616.00
2018-07-19T07:42:53.211Z,15072.00
2018-07-19T07:43:53.309Z,11016.00
2018-07-19T07:44:53.356Z,9836.00
2018-07-19T07:45:53.428Z,10348.00
2018-07-19T07:46:53.500Z,9524.00
2018-07-19T07:47:53.572Z,9168.00
2018-07-19T07:48:53.648Z,8896.00
2018-07-19T07:49:53.720Z,8804.00
2018-07-19T07:50:53.788Z,8856.00
2018-07-19T07:51:53.856Z,9052.00
2018-07-19T07:52:53.932Z,9352.00
2018-07-19T07:53:54.009Z,11080.00
2018-07-19T07:54:54.077Z,13664.00
2018-07-19T07:55:54.140Z,21248.00
2018-07-19T07:56:54.213Z,20640.00
2018-07-19T07:57:54.284Z,20480.00
2018-07-19T07:58:54.369Z,18688.00
2018-07-19T07:59:54.437Z,10696.00
2018-07-19T08:00:54.504Z,10752.00
2018-07-19T08:01:54.576Z,23360.00
2018-07-19T08:02:54.649Z,21472.00
2018-07-19T08:03:54.725Z,11932.00
2018-07-19T08:04:54.805Z,11456.00
2018-07-19T08:05:54.865Z,12668.00
2018-07-19T08:06:54.945Z,10988.00
2018-07-19T08:07:55.013Z,9740.00
2018-07-19T08:08:55.431Z,8996.00
2018-07-19T08:09:55.157Z,8720.00
2018-07-19T08:10:55.233Z,8484.00
2018-07-19T08:11:55.305Z,8388.00
2018-07-19T08:12:55.377Z,8532.00
2018-07-19T08:13:55.457Z,11408.00
2018-07-19T08:14:55.533Z,20928.00
2018-07-19T08:15:55.682Z,20320.00
2018-07-19T08:16:55.665Z,19616.00
2018-07-19T08:17:55.745Z,15648.00
2018-07-19T08:18:55.821Z,10056.00
2018-07-19T08:19:55.898Z,10452.00
2018-07-19T08:20:55.957Z,10700.00
2018-07-19T08:21:56.034Z,9116.00
2018-07-19T08:22:56.112Z,16352.00
2018-07-19T08:23:56.353Z,19392.00
2018-07-19T08:24:56.253Z,18464.00
2018-07-19T08:25:56.331Z,16288.00
2018-07-19T08:26:56.401Z,13984.00
2018-07-19T08:27:56.477Z,17184.00
2018-07-19T08:28:56.605Z,16896.00
2018-07-19T08:29:56.634Z,11472.00
2018-07-19T08:30:56.702Z,11628.00
2018-07-19T08:31:56.774Z,9372.00
2018-07-19T08:32:56.851Z,9356.00
2018-07-19T08:33:56.933Z,9556.00
2018-07-19T08:34:57.010Z,9740.00
2018-07-19T08:35:57.146Z,12132.00
2018-07-19T08:36:57.146Z,27360.00
2018-07-19T08:37:57.222Z,25440.00
2018-07-19T08:38:57.294Z,27872.00
2018-07-19T08:39:57.406Z,23680.00
2018-07-19T08:40:57.450Z,23552.00
2018-07-19T08:41:57.604Z,20480.00
2018-07-19T08:42:57.601Z,14752.00
2018-07-19T08:43:57.678Z,10904.00
2018-07-19T08:44:57.758Z,10752.00
2018-07-19T08:45:57.838Z,10216.00
2018-07-19T08:46:57.902Z,10272.00
2018-07-19T08:47:57.980Z,10748.00
2018-07-19T08:48:58.062Z,10208.00
2018-07-19T08:49:58.240Z,9948.00
2018-07-19T08:50:58.206Z,12384.00
2018-07-19T08:51:58.283Z,15360.00
2018-07-19T08:52:58.358Z,10736.00
2018-07-19T08:53:58.434Z,9672.00
2018-07-19T08:54:58.515Z,9476.00
2018-07-19T08:56:19.626Z,9384.00
2018-07-19T08:56:58.660Z,9240.00
2018-07-19T08:57:58.795Z,9136.00
2018-07-19T08:58:58.811Z,9044.00
2018-07-19T08:59:58.895Z,9116.00
2018-07-19T09:00:58.963Z,9364.00
2018-07-19T09:01:59.031Z,10568.00
2018-07-19T09:02:59.103Z,9440.00
2018-07-19T09:03:59.179Z,13888.00
2018-07-19T09:04:59.275Z,12920.00
2018-07-19T09:05:59.324Z,12744.00
2018-07-19T09:06:59.399Z,14176.00
2018-07-19T09:07:59.471Z,14528.00
2018-07-19T09:08:59.551Z,15200.00
2018-07-19T09:09:59.631Z,14976.00
2018-07-19T09:10:59.707Z,14944.00
2018-07-19T09:11:59.767Z,14784.00
2018-07-19T09:12:59.847Z,14656.00
2018-07-19T09:13:59.966Z,14336.00
2018-07-19T09:15:00.000Z,13920.00
2018-07-19T09:16:00.102Z,13920.00
2018-07-19T09:17:00.148Z,13888.00
2018-07-19T09:18:00.219Z,13856.00
2018-07-19T09:19:00.296Z,14016.00
2018-07-19T09:20:00.386Z,13952.00
2018-07-19T09:21:00.443Z,13856.00
2018-07-19T09:22:00.519Z,13540.00
2018-07-19T09:23:00.595Z,13456.00
2018-07-19T09:24:00.684Z,13408.00
2018-07-19T09:25:00.756Z,13312.00
2018-07-19T09:26:00.831Z,13412.00
2018-07-19T09:27:00.907Z,13432.00
2018-07-19T09:28:00.979Z,13368.00
2018-07-19T09:29:01.052Z,13300.00
2018-07-19T09:30:01.284Z,13248.00
2018-07-19T09:31:01.204Z,13136.00
2018-07-19T09:32:01.281Z,13032.00
2018-07-19T09:33:01.356Z,12964.00
2018-07-19T09:34:01.433Z,12920.00
2018-07-19T09:35:01.524Z,12788.00
2018-07-19T09:36:01.594Z,12684.00
2018-07-19T09:37:01.661Z,12624.00
2018-07-19T09:38:01.737Z,12560.00
2018-07-19T09:39:01.816Z,12484.00
2018-07-19T09:40:01.896Z,12352.00
2018-07-19T09:41:01.977Z,12172.00
2018-07-19T09:42:02.045Z,12032.00
2018-07-19T09:43:02.120Z,11948.00
2018-07-19T09:44:02.197Z,11856.00
2018-07-19T09:45:02.421Z,11812.00
2018-07-19T09:46:02.349Z,11740.00
2018-07-19T09:47:02.425Z,11608.00
2018-07-19T09:48:02.501Z,11540.00
2018-07-19T09:49:02.577Z,11380.00
2018-07-19T09:50:02.660Z,11276.00
2018-07-19T09:51:02.733Z,11196.00
2018-07-19T09:52:02.805Z,11060.00
2018-07-19T09:53:02.881Z,10952.00
2018-07-19T09:54:02.956Z,10852.00
2018-07-19T09:55:03.040Z,10748.00
2018-07-19T09:56:03.121Z,10612.00
2018-07-19T09:57:03.186Z,10508.00
2018-07-19T09:58:03.261Z,10400.00
2018-07-19T09:59:03.337Z,10316.00
2018-07-19T10:00:03.421Z,10228.00
2018-07-19T10:01:03.500Z,10192.00
2018-07-19T10:02:03.565Z,10160.00
2018-07-19T10:03:03.641Z,10036.00
2018-07-19T10:04:03.717Z,9948.00
2018-07-19T10:05:03.801Z,9864.00
2018-07-19T10:06:03.879Z,9792.00
2018-07-19T10:07:03.949Z,9724.00
2018-07-19T10:08:04.034Z,9628.00
2018-07-19T10:09:04.097Z,9500.00
2018-07-19T10:10:04.368Z,9372.00
2018-07-19T10:11:04.365Z,9312.00
2018-07-19T10:12:04.362Z,9208.00
2018-07-19T10:13:04.401Z,9112.00
2018-07-19T10:14:04.477Z,9024.00
2018-07-19T10:15:04.558Z,9000.00
2018-07-19T10:16:04.633Z,8972.00
2018-07-19T10:17:04.701Z,8984.00
2018-07-19T10:18:04.778Z,8960.00
2018-07-19T10:19:04.854Z,8904.00
2018-07-19T10:20:04.933Z,8792.00
2018-07-19T10:21:05.011Z,8680.00
2018-07-19T10:22:05.078Z,8592.00
2018-07-19T10:23:05.155Z,8516.00
2018-07-19T10:24:05.234Z,8424.00
2018-07-19T10:25:05.306Z,8336.00
2018-07-19T10:26:05.501Z,8276.00
2018-07-19T10:27:05.454Z,8244.00
2018-07-19T10:28:05.530Z,8252.00
2018-07-19T10:29:05.606Z,8216.00
2018-07-19T10:30:05.686Z,8172.00
2018-07-19T10:31:05.762Z,8152.00
2018-07-19T10:32:05.939Z,8112.00
2018-07-19T10:33:05.906Z,8084.00
2018-07-19T10:34:06.025Z,8052.00
2018-07-19T10:35:06.054Z,7972.00
2018-07-19T10:36:06.238Z,7932.00
2018-07-19T10:37:06.206Z,7936.00
2018-07-19T10:38:06.279Z,7920.00
2018-07-19T10:39:06.355Z,7836.00
2018-07-19T10:40:06.433Z,7776.00
2018-07-19T10:41:06.511Z,7724.00
2018-07-19T10:42:06.587Z,7684.00
2018-07-19T10:43:06.678Z,7668.00
2018-07-19T10:44:06.732Z,7656.00
2018-07-19T10:45:06.802Z,7684.00
2018-07-19T10:46:06.964Z,7772.00
2018-07-19T10:47:06.958Z,7692.00
2018-07-19T10:48:07.025Z,7676.00
2018-07-19T10:49:07.098Z,7696.00
2018-07-19T10:50:07.174Z,7764.00
2018-07-19T10:51:07.550Z,7832.00
2018-07-19T10:52:07.325Z,7888.00
2018-07-19T10:53:07.394Z,7956.00
2018-07-19T10:54:07.472Z,7976.00
2018-07-19T10:55:07.547Z,8004.00
2018-07-19T10:56:07.627Z,7944.00
2018-07-19T10:57:07.698Z,7880.00
2018-07-19T10:58:07.767Z,7380.00
2018-07-19T10:59:07.839Z,7596.00
2018-07-19T11:00:07.914Z,7608.00
2018-07-19T11:01:08.000Z,7648.00
2018-07-19T11:02:08.077Z,7628.00
2018-07-19T11:03:08.139Z,7632.00
2018-07-19T11:04:08.223Z,7656.00
2018-07-19T11:05:08.291Z,7660.00
2018-07-19T11:06:08.382Z,7624.00
2018-07-19T11:07:08.435Z,7584.00
2018-07-19T11:08:08.515Z,7548.00
2018-07-19T11:09:08.599Z,7588.00
2018-07-19T11:10:08.687Z,7540.00
2018-07-19T11:11:08.739Z,7636.00
2018-07-19T11:12:08.811Z,7612.00
2018-07-19T11:13:08.879Z,7612.00
2018-07-19T11:14:08.951Z,7616.00
2018-07-19T11:15:09.031Z,7676.00
2018-07-19T11:16:09.120Z,7768.00
2018-07-19T11:17:09.176Z,7688.00
2018-07-19T11:18:09.256Z,5504.00
2018-07-19T11:19:09.327Z,6452.00
2018-07-19T11:20:09.400Z,5176.00
2018-07-19T11:21:09.480Z,5172.00
2018-07-19T11:22:09.555Z,5564.00
2018-07-19T11:23:09.627Z,7308.00
2018-07-19T11:24:09.699Z,6340.00
2018-07-19T11:25:09.771Z,7408.00
2018-07-19T11:26:09.852Z,7380.00
2018-07-19T11:27:09.923Z,7372.00
2018-07-19T11:28:09.992Z,7480.00
2018-07-19T11:29:10.064Z,7476.00
2018-07-19T11:30:10.140Z,7616.00
2018-07-19T11:31:10.364Z,7784.00
2018-07-19T11:32:10.288Z,7868.00
2018-07-19T11:33:10.360Z,7976.00
2018-07-19T11:34:10.436Z,7924.00
2018-07-19T11:35:10.510Z,7772.00
2018-07-19T11:36:10.593Z,7636.00
2018-07-19T11:37:10.665Z,7600.00
2018-07-19T11:38:10.733Z,7576.00
2018-07-19T11:39:10.805Z,7480.00
2018-07-19T11:40:10.884Z,7384.00
2018-07-19T11:41:10.960Z,7300.00
2018-07-19T11:42:11.036Z,7196.00
2018-07-19T11:43:11.100Z,7080.00
2018-07-19T11:44:11.177Z,7008.00
2018-07-19T11:45:11.249Z,7032.00
2018-07-19T11:46:11.476Z,7036.00
2018-07-19T11:47:11.397Z,7052.00
2018-07-19T11:48:11.472Z,7064.00
2018-07-19T11:49:11.544Z,7036.00
2018-07-19T11:50:11.624Z,6960.00
2018-07-19T11:51:11.705Z,6916.00
2018-07-19T11:52:11.777Z,6916.00
2018-07-19T11:53:11.841Z,6880.00
2018-07-19T11:54:11.916Z,6844.00
2018-07-19T11:55:11.988Z,6836.00
2018-07-19T11:56:12.071Z,6796.00
2018-07-19T11:57:12.145Z,6816.00
2018-07-19T11:58:12.213Z,6800.00
2018-07-19T11:59:12.288Z,6752.00
2018-07-19T12:00:12.361Z,6760.00
2018-07-19T12:01:12.441Z,6756.00
2018-07-19T12:02:12.517Z,6752.00
2018-07-19T12:03:12.585Z,6756.00
2018-07-19T12:04:12.657Z,6768.00
2018-07-19T12:05:12.729Z,6772.00
2018-07-19T12:06:12.814Z,6728.00
2018-07-19T12:07:12.885Z,6752.00
2018-07-19T12:08:12.953Z,6752.00
2018-07-19T12:09:13.029Z,6728.00
2018-07-19T12:10:13.102Z,6700.00
2018-07-19T12:11:13.577Z,6760.00
2018-07-19T12:12:13.249Z,6840.00
2018-07-19T12:13:13.325Z,6868.00
2018-07-19T12:14:13.397Z,6892.00
2018-07-19T12:15:13.473Z,6912.00
2018-07-19T12:16:13.549Z,6984.00
2018-07-19T12:17:13.734Z,6964.00
2018-07-19T12:18:13.735Z,6916.00
2018-07-19T12:19:13.770Z,6892.00
2018-07-19T12:20:13.842Z,6864.00
2018-07-19T12:21:13.917Z,6508.00
2018-07-19T12:22:14.001Z,6672.00
2018-07-19T12:23:14.077Z,6596.00